Terminal Aerodrome Forecast
Issued by NWS

Home | Current Version | Previous Version | Graphics & Text | Print | Product List | Glossary On
Versions: 1 2 3 4 5 6 7 8 9 10 11 12 13 14 15 16
000
FTUS43 KGRB 170500
TAFCWA
TAF
KCWA 170525Z 1706/1806 25004KT P6SM SKC
     FM171300 27008KT P6SM SCT050 SCT080
     FM172300 35005KT P6SM SCT070 BKN100
      AMD LTD TO CLD VIS AND WIND TIL 171200=

USA.gov is the U.S. government's official web portal to all federal, state and local government web resources and services.